YWKH weather

CLOSED Wickham Airport
Wickham, Western Australia, Australia

Public forecast

Using degrees Celsius for public forecast. Weather courtesy of forecast.io.

METAR (pilot weather report)

Closest report is Port Hedland International Airport, 86.3 nm (159.8 km) ENE. Retrieved 2019/04/25 09:30 UTC (0 seconds ago):

YPPD 250930Z AUTO 01010KT 9999 // NCD 29/17 Q1012 RF00.0/000.0

TAF (pilot weather forecast)

Closest forecast is Port Hedland International Airport, 86.3 nm (159.8 km) ENE. Retrieved 2019/04/25 06:36 UTC (3 hours ago):

TAF YPPD 250431Z 2506/2606 10010KT CAVOK FM250900 36010KT CAVOK FM251200 14008KT CAVOK FM260100 11018G28KT CAVOK